Time;durP1;ratioP1;P1;durP2;ratioP2;P2;SDS_P1;SDS_P2;PMS_P1;PMS_P2;Temp;Humidity;BMP_temperature;BMP_pressure;BME280_temperature;BME280_humidity;BME280_pressure;Samples;Min_cycle;Max_cycle;Signal;HPM_P1;HPM_P2
2022/05/07 00:00:39;;;;;;;2.43;2.23;;;11.70;97.60;11.60;101270.00;;;;4955151;28;116776;-68
2022/05/07 00:03:05;;;;;;;4.23;3.63;;;11.70;98.00;11.50;101254.00;;;;4956095;28;98382;-68
2022/05/07 00:05:31;;;;;;;7.47;5.43;;;11.60;98.30;11.40;101265.00;;;;4956033;28;98503;-68
2022/05/07 00:07:58;;;;;;;5.23;4.43;;;11.50;98.80;11.40;101256.00;;;;4955759;28;96172;-68
2022/05/07 00:10:24;;;;;;;5.53;4.63;;;11.40;99.10;11.30;101265.00;;;;4954728;28;87785;-68
2022/05/07 00:12:50;;;;;;;8.87;7.17;;;11.40;99.40;11.20;101254.00;;;;4938448;28;110335;-68
2022/05/07 00:15:15;;;;;;;11.50;8.87;;;11.30;99.70;11.10;101255.00;;;;4936641;28;108655;-68
2022/05/07 00:20:26;;;;;;;5.20;4.73;;;11.10;99.90;10.90;101256.00;;;;4934408;28;87761;-67
2022/05/07 00:22:51;;;;;;;5.57;4.10;;;11.00;99.90;10.90;101251.00;;;;4936584;28;95413;-68
2022/05/07 00:25:17;;;;;;;5.70;4.00;;;11.00;99.90;10.80;101265.00;;;;4943448;28;109236;-68
2022/05/07 00:27:58;;;;;;;6.10;5.50;;;10.90;99.90;10.70;101265.00;;;;4942859;28;88125;-67
2022/05/07 00:30:24;;;;;;;9.17;5.13;;;10.80;99.90;10.70;101256.00;;;;4953655;28;116999;-68
2022/05/07 00:32:49;;;;;;;11.30;7.70;;;10.80;99.90;10.70;101255.00;;;;4955117;28;109235;-68
2022/05/07 00:35:16;;;;;;;9.13;6.40;;;10.70;99.90;10.60;101261.00;;;;4943975;28;97493;-68
2022/05/07 00:37:42;;;;;;;9.60;5.73;;;10.70;99.90;10.50;101253.00;;;;4935799;28;88956;-67
2022/05/07 00:40:08;;;;;;;7.70;5.60;;;10.60;99.90;10.50;101253.00;;;;4935425;28;115980;-68
2022/05/07 00:42:34;;;;;;;7.13;4.67;;;10.60;99.90;10.40;101260.00;;;;4937308;28;86959;-68
2022/05/07 00:44:59;;;;;;;5.70;4.70;;;10.80;99.90;10.40;101249.00;;;;4945486;28;91031;-68
2022/05/07 00:47:28;;;;;;;5.37;3.57;;;10.40;99.90;10.30;101247.00;;;;4954113;28;116765;-68
2022/05/07 00:52:43;;;;;;;2.40;2.20;;;10.40;99.90;10.20;101244.00;;;;4954192;28;88151;-68
2022/05/07 00:55:11;;;;;;;3.40;2.37;;;10.30;99.90;10.20;101243.00;;;;4944791;28;96173;-67
2022/05/07 00:57:38;;;;;;;4.73;2.63;;;10.20;99.90;10.10;101248.00;;;;4935793;28;88283;-67
2022/05/07 01:00:06;;;;;;;2.77;2.57;;;10.20;99.90;10.00;101242.00;;;;4937206;28;88142;-68
2022/05/07 01:02:31;;;;;;;3.07;2.50;;;10.10;99.90;9.90;101247.00;;;;4955040;28;104626;-68
2022/05/07 01:04:57;;;;;;;5.07;3.23;;;10.10;99.90;9.90;101247.00;;;;4955696;28;87896;-68
2022/05/07 01:07:30;;;;;;;5.97;4.43;;;10.00;99.90;9.80;101244.00;;;;4954991;28;116562;-68
2022/05/07 01:09:56;;;;;;;3.60;3.27;;;9.90;99.90;9.70;101249.00;;;;4953552;28;110514;-68
2022/05/07 01:12:22;;;;;;;4.00;2.30;;;9.80;99.90;9.60;101246.00;;;;4941514;28;108100;-68
2022/05/07 01:14:48;;;;;;;2.80;2.60;;;9.70;99.90;9.60;101244.00;;;;4934565;28;88739;-67
2022/05/07 01:17:13;;;;;;;3.73;3.37;;;9.70;99.90;9.50;101229.00;;;;4935360;28;89420;-67
2022/05/07 01:19:40;;;;;;;5.80;3.20;;;9.60;99.90;9.50;101235.00;;;;4935030;28;109175;-68
2022/05/07 01:22:06;;;;;;;3.50;2.70;;;9.60;99.90;9.40;101228.00;;;;4935233;28;87727;-67
2022/05/07 01:24:31;;;;;;;8.87;3.80;;;9.50;99.90;9.40;101228.00;;;;4951729;28;108119;-68
2022/05/07 01:26:57;;;;;;;3.47;2.70;;;9.40;99.90;9.40;101228.00;;;;4935175;28;114295;-68
2022/05/07 01:29:24;;;;;;;2.83;2.57;;;9.50;99.90;9.30;101226.00;;;;4935004;28;117027;-68
2022/05/07 01:31:50;;;;;;;2.97;2.60;;;9.40;99.90;9.30;101230.00;;;;4954345;28;109192;-68
2022/05/07 01:34:16;;;;;;;2.50;2.30;;;9.40;99.90;9.20;101221.00;;;;4953716;28;108540;-68
2022/05/07 01:36:41;;;;;;;3.40;3.10;;;9.40;99.90;9.20;101227.00;;;;4954514;28;102429;-68
2022/05/07 01:39:07;;;;;;;7.00;3.00;;;9.30;99.90;9.20;101223.00;;;;4955078;28;91199;-68
2022/05/07 01:41:32;;;;;;;7.30;3.60;;;9.30;99.90;9.20;101219.00;;;;4957643;28;109381;-68
2022/05/07 01:43:58;;;;;;;4.90;2.80;;;9.30;99.90;9.10;101229.00;;;;4957810;28;108725;-68
2022/05/07 01:49:08;;;;;;;3.17;2.67;;;9.20;99.90;9.00;101233.00;;;;4958783;28;87789;-68
2022/05/07 01:51:34;;;;;;;3.33;2.43;;;9.10;99.90;9.00;101228.00;;;;4959108;28;88015;-68
2022/05/07 01:54:00;;;;;;;2.33;2.13;;;9.10;99.90;8.90;101229.00;;;;4958829;28;87873;-68
2022/05/07 01:56:26;;;;;;;2.53;2.33;;;9.00;99.90;8.80;101220.00;;;;4939752;28;95057;-67
2022/05/07 01:58:51;;;;;;;4.13;2.53;;;8.90;99.90;8.80;101223.00;;;;4937655;28;117282;-68
2022/05/07 02:01:17;;;;;;;3.43;2.63;;;8.90;99.90;8.80;101224.00;;;;4948905;28;109779;-68
2022/05/07 02:03:43;;;;;;;5.10;2.80;;;8.90;99.90;8.70;101222.00;;;;4956583;28;88664;-68
2022/05/07 02:06:08;;;;;;;3.23;2.87;;;8.80;99.90;8.70;101227.00;;;;4957978;28;105395;-67
2022/05/07 02:08:34;;;;;;;3.13;2.47;;;8.80;99.90;8.70;101226.00;;;;4957155;28;118260;-68
2022/05/07 02:11:01;;;;;;;4.63;2.80;;;8.80;99.90;8.60;101234.00;;;;4955746;28;111111;-68
2022/05/07 02:13:28;;;;;;;3.63;2.67;;;8.70;99.90;8.60;101224.00;;;;4938848;28;87636;-68
2022/05/07 02:15:54;;;;;;;5.20;2.80;;;8.70;99.90;8.60;101235.00;;;;4937809;28;119145;-67
2022/05/07 02:18:19;;;;;;;4.77;2.30;;;8.70;99.90;8.50;101227.00;;;;4953587;28;108135;-68
2022/05/07 02:20:45;;;;;;;2.33;2.00;;;8.70;99.90;8.50;101229.00;;;;4957991;28;109943;-68
2022/05/07 02:23:11;;;;;;;2.30;2.03;;;8.60;99.90;8.40;101233.00;;;;4943017;28;88222;-68
2022/05/07 02:25:37;;;;;;;2.83;2.10;;;8.60;99.90;8.40;101231.00;;;;4949300;28;87621;-67
2022/05/07 02:28:03;;;;;;;3.50;2.83;;;8.50;99.90;8.40;101228.00;;;;4956383;28;107794;-68
2022/05/07 02:30:29;;;;;;;2.63;2.43;;;8.60;99.90;8.30;101230.00;;;;4957580;28;87783;-68
2022/05/07 02:33:13;;;;;;;2.77;2.47;;;8.50;99.90;8.30;101232.00;;;;4957725;28;102355;-68
2022/05/07 02:35:39;;;;;;;5.00;3.00;;;8.40;99.90;8.30;101230.00;;;;4946067;28;116257;-68
2022/05/07 02:38:11;;;;;;;3.07;2.60;;;8.40;99.90;8.20;101230.00;;;;4939655;28;87896;-68
2022/05/07 02:43:21;;;;;;;3.47;2.43;;;8.30;99.90;8.10;101221.00;;;;4937359;28;87746;-68
2022/05/07 02:45:47;;;;;;;3.13;2.50;;;8.20;99.90;8.00;101227.00;;;;4947836;28;116003;-68
2022/05/07 02:48:13;;;;;;;3.80;2.43;;;8.10;99.90;7.90;101233.00;;;;4956747;28;115030;-68
2022/05/07 02:50:38;;;;;;;2.33;2.13;;;8.10;99.90;7.90;101227.00;;;;4956587;28;109676;-68
2022/05/07 02:53:04;;;;;;;3.63;3.33;;;8.00;99.90;7.90;101227.00;;;;4955298;28;88732;-68
2022/05/07 02:55:30;;;;;;;3.67;2.47;;;8.00;99.90;7.90;101219.00;;;;4957218;28;106128;-68
2022/05/07 02:57:55;;;;;;;2.50;2.30;;;8.00;99.90;7.80;101213.00;;;;4954044;28;118218;-67
2022/05/07 03:00:21;;;;;;;3.47;3.07;;;7.90;99.90;7.80;101217.00;;;;4956843;28;109856;-67
2022/05/07 03:02:47;;;;;;;3.70;2.20;;;7.90;99.90;7.70;101224.00;;;;4957578;28;90589;-68
2022/05/07 03:05:12;;;;;;;4.30;2.60;;;7.80;99.90;7.70;101220.00;;;;4957340;28;89301;-68
2022/05/07 03:07:38;;;;;;;2.93;2.67;;;7.80;99.90;7.70;101221.00;;;;4954880;28;115703;-68
2022/05/07 03:10:04;;;;;;;2.87;2.67;;;7.80;99.90;7.60;101219.00;;;;4936681;28;109643;-68
2022/05/07 03:12:30;;;;;;;3.57;2.47;;;7.80;99.90;7.60;101237.00;;;;4936644;28;102858;-68
2022/05/07 03:14:55;;;;;;;4.07;2.77;;;7.70;99.90;7.60;101229.00;;;;4936718;28;105844;-68
2022/05/07 03:17:23;;;;;;;6.70;2.40;;;7.70;99.90;7.50;101232.00;;;;4935895;28;116142;-68
2022/05/07 03:19:48;;;;;;;2.50;2.30;;;7.60;99.90;7.50;101232.00;;;;4938047;28;87939;-68
2022/05/07 03:22:14;;;;;;;3.23;2.57;;;7.60;99.90;7.50;101238.00;;;;4945559;28;108984;-68
2022/05/07 03:24:41;;;;;;;3.00;2.70;;;7.60;99.90;7.50;101238.00;;;;4957357;28;88046;-68
2022/05/07 03:27:07;;;;;;;4.93;2.93;;;7.60;99.90;7.50;101236.00;;;;4957096;28;88798;-68
2022/05/07 03:29:33;;;;;;;5.60;3.57;;;7.60;99.90;7.50;101234.00;;;;4940705;28;94197;-68
2022/05/07 03:31:58;;;;;;;3.50;2.97;;;7.60;99.90;7.50;101226.00;;;;4936775;28;93745;-68
2022/05/07 03:34:24;;;;;;;3.10;2.70;;;7.60;99.90;7.50;101233.00;;;;4937502;28;87199;-68
2022/05/07 03:36:50;;;;;;;2.87;2.50;;;7.70;99.90;7.50;101230.00;;;;4935758;28;116015;-68
2022/05/07 03:39:16;;;;;;;3.97;3.33;;;7.60;99.90;7.50;101229.00;;;;4950209;28;88063;-69
2022/05/07 03:41:42;;;;;;;8.00;2.80;;;7.60;99.90;7.50;101236.00;;;;4954263;28;98708;-68
2022/05/07 03:44:07;;;;;;;7.03;3.13;;;7.60;99.90;7.50;101231.00;;;;4955797;28;118878;-68
2022/05/07 03:46:33;;;;;;;3.43;2.93;;;7.60;99.90;7.50;101224.00;;;;4955835;28;118035;-68
2022/05/07 03:48:59;;;;;;;2.03;1.90;;;7.70;99.90;7.50;101226.00;;;;4946553;28;87831;-68
2022/05/07 03:51:25;;;;;;;3.63;2.40;;;7.60;99.90;7.50;101232.00;;;;4945409;28;101503;-68
2022/05/07 03:53:51;;;;;;;3.07;2.17;;;7.60;99.90;7.50;101223.00;;;;4955815;28;113912;-68
2022/05/07 03:56:16;;;;;;;2.93;2.57;;;7.60;99.90;7.50;101230.00;;;;4936762;28;116050;-68
2022/05/07 03:58:42;;;;;;;5.27;3.00;;;7.60;99.90;7.60;101232.00;;;;4943670;28;110873;-68
2022/05/07 04:01:08;;;;;;;3.80;2.93;;;7.70;99.90;7.60;101230.00;;;;4955886;28;104439;-68
2022/05/07 04:03:34;;;;;;;5.03;3.33;;;7.70;99.90;7.70;101230.00;;;;4955989;28;88647;-68
2022/05/07 04:06:00;;;;;;;4.60;3.20;;;7.70;99.90;7.70;101239.00;;;;4955603;28;114016;-68
2022/05/07 04:08:27;;;;;;;4.70;3.17;;;7.80;99.90;7.80;101246.00;;;;4954981;28;110375;-67
2022/05/07 04:10:52;;;;;;;4.17;3.77;;;7.90;99.90;7.90;101235.00;;;;4956171;28;87753;-67
2022/05/07 04:13:18;;;;;;;5.23;2.93;;;7.90;99.90;8.00;101238.00;;;;4935602;28;105951;-67
2022/05/07 04:15:45;;;;;;;3.17;2.87;;;8.00;99.90;8.10;101244.00;;;;4936259;28;88581;-67
2022/05/07 04:18:11;;;;;;;3.37;2.47;;;8.10;99.90;8.20;101238.00;;;;4936685;28;104934;-67
2022/05/07 04:20:38;;;;;;;6.77;3.03;;;8.30;99.90;8.40;101236.00;;;;4951299;28;87816;-67
2022/05/07 04:23:06;;;;;;;4.13;3.40;;;8.40;99.90;8.50;101239.00;;;;4936497;28;87547;-67
2022/05/07 04:25:32;;;;;;;3.53;2.80;;;8.50;99.90;8.70;101243.00;;;;4936449;28;88346;-67
2022/05/07 04:27:58;;;;;;;6.10;3.93;;;8.70;99.90;8.80;101246.00;;;;4936251;28;88111;-68
2022/05/07 04:30:24;;;;;;;5.80;3.57;;;8.80;99.90;9.00;101245.00;;;;4955651;28;88758;-69
2022/05/07 04:32:50;;;;;;;3.60;3.30;;;8.90;99.90;9.10;101253.00;;;;4955039;28;117460;-69
2022/05/07 04:35:16;;;;;;;5.10;3.57;;;9.10;99.90;9.20;101243.00;;;;4949527;28;88761;-69
2022/05/07 04:37:42;;;;;;;4.17;3.80;;;9.30;99.90;9.40;101249.00;;;;4951163;28;87940;-69
2022/05/07 04:40:12;;;;;;;5.27;3.53;;;9.40;99.90;9.60;101252.00;;;;4953308;28;105561;-68
2022/05/07 04:42:37;;;;;;;5.60;4.73;;;9.60;99.90;9.70;101254.00;;;;4955729;28;88228;-69
2022/05/07 04:45:07;;;;;;;3.83;3.47;;;9.70;99.90;9.80;101253.00;;;;4952790;28;100696;-69
2022/05/07 04:47:33;;;;;;;3.57;3.27;;;9.80;99.90;9.90;101250.00;;;;4952033;28;86999;-68
2022/05/07 04:49:59;;;;;;;5.20;3.70;;;10.00;99.90;10.00;101251.00;;;;4951439;28;87651;-67
2022/05/07 04:52:26;;;;;;;4.17;3.50;;;10.00;99.90;10.00;101253.00;;;;4951411;28;92187;-67
2022/05/07 04:54:51;;;;;;;3.43;3.13;;;10.10;99.90;10.10;101258.00;;;;4952236;28;88975;-67
2022/05/07 04:57:17;;;;;;;6.60;3.97;;;10.10;99.90;10.20;101265.00;;;;4951488;28;87989;-66
2022/05/07 04:59:43;;;;;;;4.87;4.30;;;10.20;99.90;10.20;101256.00;;;;4966458;28;87776;-67
2022/05/07 05:02:09;;;;;;;4.60;3.33;;;10.20;99.90;10.20;101257.00;;;;4952232;28;87854;-67
2022/05/07 05:04:34;;;;;;;4.17;3.57;;;10.20;99.90;10.20;101260.00;;;;4951193;28;117414;-67
2022/05/07 05:07:00;;;;;;;4.73;3.20;;;10.30;99.90;10.20;101264.00;;;;4950330;28;110337;-67
2022/05/07 05:09:26;;;;;;;7.80;4.03;;;10.30;99.90;10.30;101265.00;;;;4950876;28;109601;-67
2022/05/07 05:11:51;;;;;;;6.00;3.30;;;10.40;99.90;10.50;101270.00;;;;4951377;28;95888;-67
2022/05/07 05:17:01;;;;;;;4.13;3.70;;;10.60;99.90;10.90;101269.00;;;;4946061;28;87829;-67
2022/05/07 05:19:27;;;;;;;4.80;3.57;;;10.80;99.90;11.00;101267.00;;;;4949003;28;88784;-67
2022/05/07 05:21:53;;;;;;;4.93;4.37;;;11.00;99.90;11.20;101270.00;;;;4945437;28;117569;-67
2022/05/07 05:24:18;;;;;;;5.93;3.90;;;11.10;99.90;11.50;101264.00;;;;4950551;28;118679;-67
2022/05/07 05:26:44;;;;;;;5.50;4.07;;;11.40;99.90;11.70;101274.00;;;;4965686;28;109662;-67
2022/05/07 05:29:10;;;;;;;8.27;4.00;;;11.60;99.90;11.90;101272.00;;;;4945620;28;109090;-67
2022/05/07 05:31:35;;;;;;;5.37;4.03;;;11.80;99.90;12.00;101274.00;;;;4950507;28;118180;-67
2022/05/07 05:34:01;;;;;;;5.27;4.33;;;11.90;99.90;12.20;101275.00;;;;4950904;28;118357;-67
2022/05/07 05:36:27;;;;;;;3.83;3.47;;;12.10;99.90;12.50;101279.00;;;;4951500;28;111130;-67
2022/05/07 05:38:53;;;;;;;3.93;3.20;;;12.30;99.90;12.70;101279.00;;;;4951149;28;88322;-67
2022/05/07 05:41:20;;;;;;;5.00;3.90;;;12.60;99.90;12.90;101281.00;;;;4951865;28;88269;-66
2022/05/07 05:43:46;;;;;;;3.97;2.80;;;12.80;99.90;13.20;101284.00;;;;4950447;28;88953;-67
2022/05/07 05:46:14;;;;;;;7.07;3.50;;;13.00;99.90;13.40;101289.00;;;;4951298;28;87909;-66
2022/05/07 05:48:39;;;;;;;4.03;3.10;;;13.20;99.90;13.60;101285.00;;;;4950489;28;87610;-66
2022/05/07 05:51:05;;;;;;;4.63;3.47;;;13.50;99.90;13.80;101292.00;;;;4946131;28;104413;-67
2022/05/07 05:53:31;;;;;;;4.87;3.77;;;13.70;99.90;14.00;101287.00;;;;4943851;28;116354;-66
2022/05/07 05:55:58;;;;;;;3.53;3.10;;;13.90;99.90;14.20;101291.00;;;;4951413;28;87717;-65
2022/05/07 05:58:24;;;;;;;4.43;3.67;;;14.10;99.90;14.30;101296.00;;;;4951411;28;88229;-65
2022/05/07 06:00:52;;;;;;;3.40;2.97;;;14.20;99.90;14.40;101294.00;;;;4951303;28;88292;-66
2022/05/07 06:03:19;;;;;;;3.58;2.95;;;14.40;99.90;14.50;101296.00;;;;4951784;28;87765;-65
2022/05/07 06:05:44;;;;;;;3.80;2.63;;;14.50;99.90;14.70;101303.00;;;;4950846;28;88008;-64
2022/05/07 06:08:12;;;;;;;4.95;3.47;;;14.60;99.90;14.80;101300.00;;;;4951228;28;89108;-65
2022/05/07 06:10:38;;;;;;;5.05;3.50;;;14.80;99.90;15.00;101305.00;;;;4950253;28;89382;-67
2022/05/07 06:13:10;;;;;;;2.45;2.25;;;14.90;99.90;15.30;101301.00;;;;4949139;28;116795;-66
2022/05/07 06:15:37;;;;;;;2.80;2.20;;;15.10;99.90;15.50;101295.00;;;;4950717;28;101158;-65
2022/05/07 06:18:03;;;;;;;2.80;2.33;;;15.30;99.90;15.60;101300.00;;;;4951787;28;87860;-65
2022/05/07 06:20:29;;;;;;;2.97;2.72;;;15.50;99.90;15.90;101304.00;;;;4949715;28;117958;-65
2022/05/07 06:22:59;;;;;;;2.42;2.22;;;15.70;99.50;16.00;101300.00;;;;4949941;28;117541;-65
2022/05/07 06:28:10;;;;;;;2.38;2.17;;;16.00;97.90;16.50;101301.00;;;;4954682;28;87967;-65
2022/05/07 06:30:36;;;;;;;2.72;1.77;;;16.30;96.90;16.70;101295.00;;;;4952531;28;117556;-65
2022/05/07 06:33:02;;;;;;;2.00;1.80;;;16.50;96.40;17.00;101292.00;;;;4953054;28;117846;-65
2022/05/07 06:35:28;;;;;;;2.75;2.42;;;16.80;95.50;17.20;101288.00;;;;4954501;28;87844;-65
2022/05/07 06:37:54;;;;;;;4.80;3.00;;;17.00;94.30;17.40;101278.00;;;;4951819;28;109854;-68
2022/05/07 06:40:20;;;;;;;5.53;2.38;;;17.30;93.30;17.60;101282.00;;;;4947882;28;89077;-66
2022/05/07 06:42:45;;;;;;;2.75;2.30;;;17.50;91.30;17.70;101275.00;;;;4951210;28;89268;-67
2022/05/07 06:45:11;;;;;;;2.78;2.30;;;17.60;89.80;17.90;101276.00;;;;4950818;28;87855;-65
2022/05/07 06:47:38;;;;;;;3.33;2.03;;;17.70;87.50;17.90;101288.00;;;;4950520;28;108948;-67
2022/05/07 06:50:04;;;;;;;5.65;2.60;;;17.80;86.20;18.10;101285.00;;;;4951087;28;89713;-65
2022/05/07 06:52:31;;;;;;;1.70;1.40;;;17.90;85.90;18.30;101294.00;;;;4948426;28;94014;-65
2022/05/07 06:54:57;;;;;;;2.50;2.05;;;18.10;86.00;18.60;101305.00;;;;4950633;28;103918;-66
2022/05/07 06:57:25;;;;;;;3.70;2.22;;;18.40;85.10;18.90;101299.00;;;;4947088;28;88657;-66
2022/05/07 06:59:51;;;;;;;2.30;2.10;;;18.60;82.40;19.00;101304.00;;;;4952213;28;88925;-65
2022/05/07 07:02:17;;;;;;;1.85;1.70;;;18.90;79.50;19.30;101312.00;;;;4948318;28;87840;-65
2022/05/07 07:04:42;;;;;;;3.20;2.03;;;19.10;79.30;19.50;101311.00;;;;4954004;28;87794;-65
2022/05/07 07:07:08;;;;;;;1.77;1.40;;;19.30;78.00;19.80;101310.00;;;;4953470;28;96553;-65
2022/05/07 07:09:34;;;;;;;2.78;1.35;;;19.60;76.80;20.00;101315.00;;;;4942896;28;88932;-65
2022/05/07 07:12:00;;;;;;;1.63;1.30;;;19.80;73.90;20.20;101314.00;;;;4950903;28;118461;-65
2022/05/07 07:14:26;;;;;;;2.33;1.58;;;20.00;72.80;20.50;101308.00;;;;4954151;28;94866;-65
2022/05/07 07:16:51;;;;;;;1.38;1.27;;;20.30;72.40;20.80;101310.00;;;;4948275;28;109295;-65
2022/05/07 07:19:17;;;;;;;8.48;1.63;;;20.60;70.80;21.10;101311.00;;;;4952710;28;117875;-65
2022/05/07 07:21:43;;;;;;;5.38;2.20;;;20.90;69.70;21.40;101323.00;;;;4952660;28;89072;-65
2022/05/07 07:24:09;;;;;;;2.58;1.88;;;21.20;68.70;21.70;101315.00;;;;4954508;28;87775;-65
2022/05/07 07:26:35;;;;;;;1.38;1.27;;;21.40;67.00;21.90;101312.00;;;;4947235;28;109027;-66
2022/05/07 07:29:00;;;;;;;2.47;1.40;;;21.70;66.00;22.20;101314.00;;;;4951746;28;116807;-65
2022/05/07 07:31:31;;;;;;;1.40;1.30;;;21.90;65.00;22.50;101309.00;;;;4952001;28;108359;-67
2022/05/07 07:33:56;;;;;;;2.05;1.60;;;22.30;64.20;22.90;101315.00;;;;4954393;28;88556;-67
2022/05/07 07:36:22;;;;;;;1.40;1.30;;;22.60;62.70;23.30;101317.00;;;;4947168;28;109418;-67
2022/05/07 07:38:48;;;;;;;2.60;1.23;;;23.00;60.50;23.40;101317.00;;;;4951799;28;108197;-67
2022/05/07 07:41:13;;;;;;;1.85;1.10;;;23.20;58.60;23.60;101320.00;;;;4950491;28;117564;-67
2022/05/07 07:43:40;;;;;;;2.53;1.33;;;23.40;58.40;23.90;101320.00;;;;4952927;28;110962;-67
2022/05/07 07:48:50;;;;;;;1.40;1.30;;;23.80;58.10;24.30;101319.00;;;;4950534;28;87841;-66
2022/05/07 07:51:16;;;;;;;1.05;0.95;;;24.00;57.20;24.50;101311.00;;;;4944545;28;87695;-68
2022/05/07 07:53:42;;;;;;;1.38;1.27;;;24.20;56.40;24.70;101317.00;;;;4953562;28;87922;-70
2022/05/07 07:56:07;;;;;;;1.67;1.10;;;24.40;55.90;25.00;101317.00;;;;4946850;28;87867;-68
2022/05/07 07:58:34;;;;;;;3.20;1.60;;;24.70;55.00;25.20;101309.00;;;;4944684;28;92038;-69
2022/05/07 08:01:00;;;;;;;1.17;1.02;;;24.90;53.40;25.20;101314.00;;;;4945997;28;87945;-68
2022/05/07 08:03:26;;;;;;;3.42;1.40;;;25.00;52.50;25.40;101315.00;;;;4953435;28;87272;-69
2022/05/07 08:05:53;;;;;;;1.27;1.17;;;25.20;52.30;25.50;101314.00;;;;4951797;28;107075;-68
2022/05/07 08:13:53;;;;;;;1.13;1.02;;;25.40;49.70;25.40;101320.00;;;;4950772;28;87814;-70
2022/05/07 08:16:21;;;;;;;1.48;0.93;;;25.40;49.30;25.40;101319.00;;;;4949558;28;88265;-69
2022/05/07 08:18:47;;;;;;;1.23;0.77;;;25.30;48.50;25.50;101323.00;;;;4950816;28;88116;-69
2022/05/07 08:21:13;;;;;;;1.88;0.82;;;25.40;48.20;25.70;101317.00;;;;4948602;28;88353;-68
2022/05/07 08:23:41;;;;;;;0.57;0.57;;;25.50;47.90;25.80;101316.00;;;;4953293;28;88322;-69
2022/05/07 08:26:08;;;;;;;1.40;1.30;;;25.60;47.00;26.00;101316.00;;;;4949257;28;88059;-68
2022/05/07 08:28:36;;;;;;;1.23;0.93;;;25.80;46.70;26.20;101323.00;;;;4950795;28;87052;-70
2022/05/07 08:31:03;;;;;;;0.60;0.60;;;25.90;46.40;26.30;101324.00;;;;4949435;28;99859;-70
2022/05/07 08:33:29;;;;;;;2.08;0.80;;;26.10;45.40;26.30;101324.00;;;;4967548;28;88231;-68
2022/05/07 08:35:55;;;;;;;1.60;0.88;;;26.10;43.70;26.40;101317.00;;;;4951752;28;88921;-67
2022/05/07 08:38:21;;;;;;;1.08;0.70;;;26.20;43.80;26.40;101307.00;;;;4948291;28;88254;-68
2022/05/07 08:40:47;;;;;;;1.10;1.00;;;26.20;43.80;26.50;101314.00;;;;4935409;28;115660;-69
2022/05/07 08:43:15;;;;;;;0.75;0.75;;;26.30;43.30;26.60;101320.00;;;;4950824;28;108700;-69
2022/05/07 08:45:41;;;;;;;0.70;0.70;;;26.40;42.90;26.80;101317.00;;;;4952032;28;87935;-69
2022/05/07 08:48:08;;;;;;;3.60;0.63;;;26.50;42.80;26.90;101317.00;;;;4949408;28;105448;-69
2022/05/07 08:50:39;;;;;;;1.55;0.82;;;26.60;42.20;27.00;101320.00;;;;4950672;28;88761;-70
2022/05/07 08:53:05;;;;;;;1.20;0.85;;;26.70;41.40;27.10;101329.00;;;;4950801;28;101384;-69
2022/05/07 08:55:31;;;;;;;0.38;0.38;;;26.80;41.30;27.20;101325.00;;;;4943385;28;87906;-69
2022/05/07 08:57:57;;;;;;;0.90;0.60;;;26.90;40.70;27.20;101315.00;;;;4946291;28;88497;-68
2022/05/07 09:00:26;;;;;;;0.75;0.60;;;27.00;40.20;27.10;101322.00;;;;4946075;28;88960;-70
2022/05/07 09:02:58;;;;;;;1.45;0.80;;;26.90;39.80;26.80;101317.00;;;;4951592;28;87756;-68
2022/05/07 09:05:37;;;;;;;0.70;0.60;;;26.80;39.40;26.50;101315.00;;;;4933510;28;88358;-69
2022/05/07 09:08:06;;;;;;;2.08;0.60;;;26.50;39.30;26.50;101326.00;;;;4941915;28;87887;-68
2022/05/07 09:10:35;;;;;;;0.45;0.45;;;26.30;39.50;26.50;101315.00;;;;4949325;28;87932;-70
2022/05/07 09:13:08;;;;;;;0.88;0.77;;;26.30;39.30;26.50;101314.00;;;;4945166;28;102784;-71
2022/05/07 09:15:48;;;;;;;2.55;0.50;;;26.30;39.50;26.50;101312.00;;;;4952211;28;87821;-71
2022/05/07 09:18:16;;;;;;;0.63;0.55;;;26.30;39.40;26.80;101322.00;;;;4944400;28;89123;-71
2022/05/07 09:20:42;;;;;;;1.30;0.80;;;26.40;39.20;27.00;101318.00;;;;4951365;28;88210;-70
2022/05/07 09:23:10;;;;;;;0.65;0.63;;;26.60;38.90;27.20;101320.00;;;;4947371;28;110579;-69
2022/05/07 09:25:45;;;;;;;1.88;0.98;;;26.80;38.60;27.50;101311.00;;;;4950604;28;88732;-71
2022/05/07 09:28:11;;;;;;;0.60;0.60;;;27.00;38.60;27.70;101320.00;;;;4933246;28;89096;-71
2022/05/07 09:30:38;;;;;;;0.52;0.50;;;27.30;38.50;28.00;101320.00;;;;4950309;28;117942;-71
2022/05/07 09:33:06;;;;;;;0.85;0.50;;;27.50;38.40;28.30;101317.00;;;;4948283;28;88160;-68
2022/05/07 09:35:50;;;;;;;0.75;0.70;;;27.80;38.20;28.50;101314.00;;;;4945164;28;87817;-70
2022/05/07 09:38:24;;;;;;;1.25;1.15;;;27.90;36.60;28.70;101313.00;;;;4951112;28;88347;-71
2022/05/07 09:40:51;;;;;;;0.50;0.50;;;28.20;34.80;28.70;101305.00;;;;4940975;28;88467;-71
2022/05/07 09:43:18;;;;;;;0.57;0.50;;;28.30;34.90;28.70;101304.00;;;;4951181;28;87013;-69
2022/05/07 09:45:44;;;;;;;10.27;0.80;;;28.40;34.00;28.80;101306.00;;;;4951984;28;87814;-68
2022/05/07 09:48:12;;;;;;;1.13;0.60;;;28.40;34.60;29.00;101300.00;;;;4949489;28;93681;-70
2022/05/07 09:58:53;;;;;;;0.57;0.40;;;29.00;32.70;29.60;101295.00;;;;4951065;28;87747;-69
2022/05/07 10:01:20;;;;;;;0.45;0.40;;;29.10;33.00;29.80;101299.00;;;;4948037;28;96300;-69
2022/05/07 10:04:16;;;;;;;0.40;0.28;;;29.20;32.10;30.00;101303.00;;;;4953137;28;87757;-69
2022/05/07 10:07:17;;;;;;;0.55;0.32;;;29.40;32.40;30.20;101303.00;;;;4953877;28;87847;-69
2022/05/07 10:10:12;;;;;;;0.40;0.40;;;29.60;31.50;30.40;101299.00;;;;4955525;28;87677;-71
2022/05/07 10:12:38;;;;;;;4.38;0.80;;;29.70;31.70;30.70;101298.00;;;;4946471;28;110368;-69
2022/05/07 10:15:11;;;;;;;0.68;0.40;;;30.00;31.60;31.10;101292.00;;;;4953750;28;87793;-69
2022/05/07 10:17:37;;;;;;;0.60;0.20;;;30.30;30.50;31.40;101282.00;;;;4948468;28;89091;-71
2022/05/07 10:20:12;;;;;;;0.30;0.13;;;30.70;30.60;31.80;101296.00;;;;4951087;28;117931;-70
2022/05/07 10:22:37;;;;;;;1.65;0.93;;;30.90;30.80;32.20;101285.00;;;;4951526;28;87771;-69
2022/05/07 10:25:10;;;;;;;0.65;0.30;;;31.30;30.00;32.40;101287.00;;;;4955058;28;92307;-69
2022/05/07 10:27:42;;;;;;;0.40;0.32;;;31.50;29.70;32.10;101290.00;;;;4950085;28;87637;-69
2022/05/07 10:30:22;;;;;;;0.40;0.28;;;31.50;29.60;31.80;101291.00;;;;4953954;28;97312;-69
2022/05/07 10:32:57;;;;;;;0.68;0.30;;;31.30;29.70;31.50;101288.00;;;;4952564;28;88973;-69
2022/05/07 10:35:44;;;;;;;0.57;0.57;;;31.00;29.90;31.40;101297.00;;;;4950247;28;87125;-69
2022/05/07 10:38:13;;;;;;;0.45;0.45;;;30.90;30.30;31.40;101292.00;;;;4950298;28;87882;-69
2022/05/07 10:40:58;;;;;;;0.35;0.35;;;30.80;30.50;31.30;101286.00;;;;4948139;28;87853;-69
2022/05/07 10:43:43;;;;;;;0.85;0.60;;;30.80;30.80;31.20;101289.00;;;;4951124;28;88904;-72
2022/05/07 10:46:20;;;;;;;1.67;0.80;;;30.60;31.30;30.90;101297.00;;;;4947473;28;101696;-71
2022/05/07 10:48:53;;;;;;;1.25;0.60;;;30.40;31.80;30.70;101298.00;;;;4952126;28;88032;-70
2022/05/07 10:51:27;;;;;;;1.00;0.82;;;30.30;32.30;30.40;101290.00;;;;4965029;28;88209;-69
2022/05/07 10:54:00;;;;;;;0.40;0.32;;;30.00;32.30;30.10;101279.00;;;;4953354;28;88777;-69
2022/05/07 10:56:28;;;;;;;0.82;0.68;;;29.70;32.60;30.30;101283.00;;;;4946563;28;87710;-69
2022/05/07 10:58:59;;;;;;;1.08;0.75;;;29.70;32.50;30.30;101286.00;;;;4953141;28;88128;-70
2022/05/07 11:01:28;;;;;;;1.10;0.55;;;29.80;32.40;30.00;101280.00;;;;4950658;28;87250;-69
2022/05/07 11:04:05;;;;;;;0.52;0.52;;;29.60;32.40;29.90;101274.00;;;;4952922;28;87884;-69
2022/05/07 11:06:50;;;;;;;2.20;0.75;;;29.50;32.90;29.70;101278.00;;;;4952981;28;87673;-68
2022/05/07 11:09:17;;;;;;;1.98;0.70;;;29.30;32.30;29.60;101279.00;;;;4951593;28;88989;-69
2022/05/07 11:11:49;;;;;;;0.65;0.60;;;29.10;32.90;29.40;101277.00;;;;4950276;28;97362;-71
2022/05/07 11:14:26;;;;;;;1.65;0.68;;;29.00;32.70;29.20;101274.00;;;;4951675;28;87853;-69
2022/05/07 11:16:55;;;;;;;0.82;0.55;;;28.80;33.10;29.00;101283.00;;;;4952679;28;87756;-69
2022/05/07 11:19:33;;;;;;;1.50;0.50;;;28.70;33.40;28.80;101274.00;;;;4952288;28;87939;-69
2022/05/07 11:22:03;;;;;;;1.35;0.73;;;28.50;33.60;28.70;101279.00;;;;4952833;28;89173;-72
2022/05/07 11:24:33;;;;;;;0.35;0.35;;;28.30;33.90;28.60;101275.00;;;;4950884;28;88450;-71